Temp: 2.5°C   Baro: 1019.1mb
  Wind: 2.9mph   Dir: SSE (147°)
  Rain: 0.0mm (0.0mm/hr)
  Solar: 0W/m2  Hum: 79%
 
Bath Spa Weather Historical Data
Daily Summary for December 07, 2018 Units:  English    Metric   Both
Next Day »
Daily Weekly Monthly Yearly Custom
  High: Low: Average:
Temperature: 55.8 °F 43.3 °F 49.3 °F
Dew Point: 53.2 °F 38.3 °F 45.5 °F
Humidity: 94% 72% 87%
Wind Speed: 30mph 0.9mph 8.9mph
Wind Gust: 30mph - -
Wind direction- - West
Pressure: 29.8 in 29.5 in -
Precipitation: 0.69 in    
Historical Graphs
 
 
Tabular Data for December 07, 2018
Time Temperature Dew Point Pressure Wind direction Wind Speed Wind Gust Humidity Rainfall Rate (Hourly) solar
00:04 55.4 °F 53.1 °F 29.8 in WSW 2 mph 4 mph 92% 0 in 0.00 W/m2
00:09 55.4 °F 53.1 °F 29.8 in SW 13 mph 13 mph 92% 0 in 0.00 W/m2
00:14 55.4 °F 53.1 °F 29.8 in SW 14 mph 14 mph 92% 0 in 0.00 W/m2
00:19 55.4 °F 53.1 °F 29.8 in SW 4 mph 6 mph 92% 0 in 0.00 W/m2
00:24 55.2 °F 52.9 °F 29.8 in WSW 4 mph 7 mph 92% 0 in 0.00 W/m2
00:29 55.2 °F 52.9 °F 29.8 in SSW 4.9 mph 7 mph 92% 0 in 0.00 W/m2
00:34 55.2 °F 52.9 °F 29.8 in WSW 6 mph 10 mph 92% 0 in 0.00 W/m2
00:39 55.4 °F 53.1 °F 29.8 in WSW 6 mph 10 mph 92% 0 in 0.00 W/m2
00:44 55.4 °F 53.1 °F 29.8 in SW 2.9 mph 10 mph 92% 0 in 0.00 W/m2
00:49 55.2 °F 52.9 °F 29.8 in SW 4 mph 13 mph 92% 0 in 0.00 W/m2
00:54 55.4 °F 53.1 °F 29.8 in SW 11 mph 15 mph 92% 0 in 0.00 W/m2
00:58 55.4 °F 53.1 °F 29.8 in West 10.1 mph 10 mph 92% 0 in 0.00 W/m2
01:04 55.4 °F 53.1 °F 29.8 in SW 4.9 mph 17 mph 92% 0 in 0.00 W/m2
01:09 55.4 °F 53.1 °F 29.8 in SW 8.9 mph 16 mph 92% 0 in 0.00 W/m2
01:14 55.4 °F 53.1 °F 29.8 in WSW 8.9 mph 12 mph 92% 0 in 0.00 W/m2
01:19 55.4 °F 53.1 °F 29.8 in SW 2.9 mph 16 mph 92% 0 in 0.00 W/m2
01:24 55.4 °F 53.1 °F 29.8 in WSW 6.9 mph 12 mph 92% 0 in 0.00 W/m2
01:29 55.4 °F 53.1 °F 29.8 in WSW 6 mph 9 mph 92% 0 in 0.00 W/m2
01:34 55.4 °F 53.1 °F 29.7 in WSW 4 mph 11 mph 92% 0 in 0.00 W/m2
01:39 55.4 °F 53.1 °F 29.7 in WSW 2.9 mph 9 mph 92% 0 in 0.00 W/m2
01:44 55.4 °F 53.1 °F 29.7 in SW 6 mph 16 mph 92% 0 in 0.00 W/m2
01:49 55.4 °F 53.1 °F 29.7 in SSW 6.9 mph 18 mph 92% 0 in 0.00 W/m2
01:54 55.4 °F 53.1 °F 29.7 in SSW 11 mph 14 mph 92% 0 in 0.00 W/m2
01:59 55.4 °F 53.1 °F 29.7 in SW 10.1 mph 10 mph 92% 0 in 0.00 W/m2
02:04 55.4 °F 52.9 °F 29.7 in SW 4 mph 14 mph 91% 0 in 0.00 W/m2
02:09 55.4 °F 52.9 °F 29.7 in SSW 6 mph 11 mph 91% 0 in 0.00 W/m2
02:14 55.6 °F 53.1 °F 29.7 in South 4 mph 14 mph 91% 0 in 0.00 W/m2
02:19 55.6 °F 53.1 °F 29.7 in SW 8.9 mph 16 mph 91% 0 in 0.00 W/m2
02:24 55.8 °F 53.2 °F 29.7 in WSW 12.1 mph 15 mph 91% 0 in 0.00 W/m2
02:29 55.8 °F 53.2 °F 29.7 in SW 4.9 mph 12 mph 91% 0 in 0.00 W/m2
02:34 55.6 °F 53.1 °F 29.7 in WSW 10.1 mph 10 mph 91% 0 in 0.00 W/m2
02:39 55.6 °F 53.1 °F 29.7 in SW 6 mph 15 mph 91% 0 in 0.00 W/m2
02:44 55.4 °F 52.9 °F 29.7 in SW 6.9 mph 11 mph 91% 0.01 in 0.00 W/m2
02:49 55.4 °F 52.9 °F 29.7 in WSW 6.9 mph 12 mph 91% 0.01 in 0.00 W/m2
02:54 55.4 °F 52.9 °F 29.7 in WSW 6.9 mph 11 mph 91% 0.01 in 0.00 W/m2
02:59 55.4 °F 52.9 °F 29.7 in SSW 12.1 mph 13 mph 91% 0.01 in 0.00 W/m2
03:04 55.4 °F 52.9 °F 29.7 in WSW 6 mph 12 mph 91% 0.01 in 0.00 W/m2
03:09 55.4 °F 52.9 °F 29.7 in WSW 19.9 mph 20 mph 91% 0.01 in 0.00 W/m2
03:14 55.6 °F 53.1 °F 29.7 in WSW 8.9 mph 16 mph 91% 0.01 in 0.00 W/m2
03:19 55.6 °F 53.1 °F 29.7 in SW 6.9 mph 10 mph 91% 0.01 in 0.00 W/m2
03:24 55.4 °F 52.9 °F 29.7 in SW 10.1 mph 16 mph 91% 0.01 in 0.00 W/m2
03:29 55.4 °F 52.9 °F 29.7 in SW 8.9 mph 15 mph 91% 0.01 in 0.00 W/m2
03:34 55.4 °F 52.9 °F 29.7 in SSE 6 mph 19 mph 91% 0.01 in 0.00 W/m2
03:39 55.2 °F 52.7 °F 29.7 in SW 0.9 mph 9 mph 91% 0.01 in 0.00 W/m2
03:44 55.2 °F 52.7 °F 29.7 in SW 10.1 mph 11 mph 91% 0 in 0.00 W/m2
03:49 55 °F 52.5 °F 29.7 in SW 6.9 mph 16 mph 91% 0 in 0.00 W/m2
03:54 55 °F 52.5 °F 29.7 in SW 10.1 mph 11 mph 91% 0 in 0.00 W/m2
03:59 55 °F 52.7 °F 29.7 in WSW 8.1 mph 17 mph 92% 0 in 0.00 W/m2
04:04 54.9 °F 52.5 °F 29.6 in SW 8.9 mph 15 mph 92% 0.01 in 0.00 W/m2
04:09 54.7 °F 52.3 °F 29.6 in WSW 6 mph 10 mph 92% 0.01 in 0.00 W/m2
04:14 54.5 °F 52.2 °F 29.6 in SW 8.1 mph 18 mph 92% 0.02 in 0.00 W/m2
04:19 54.5 °F 52.5 °F 29.6 in SW 11 mph 11 mph 93% 0.02 in 0.00 W/m2
04:24 54.5 °F 52.5 °F 29.6 in SW 4 mph 11 mph 93% 0.02 in 0.00 W/m2
04:29 54.3 °F 52.3 °F 29.6 in South 8.1 mph 20 mph 93% 0.02 in 0.00 W/m2
04:34 54.3 °F 52.3 °F 29.6 in SW 6.9 mph 15 mph 93% 0.04 in 0.00 W/m2
04:39 54.3 °F 52.3 °F 29.6 in SW 4 mph 11 mph 93% 0.04 in 0.00 W/m2
04:44 54.3 °F 52.3 °F 29.6 in SSW 4.9 mph 8 mph 93% 0.04 in 0.00 W/m2
04:48 54.3 °F 52.3 °F 29.6 in SSW 4.9 mph 17 mph 93% 0.04 in 0.00 W/m2
04:52 54.3 °F 52.3 °F 29.6 in WSW 8.1 mph 14 mph 93% 0.04 in 0.00 W/m2
04:57 54.3 °F 52.3 °F 29.6 in SW 10.1 mph 13 mph 93% 0.05 in 0.00 W/m2
05:00 54.3 °F 52.3 °F 29.6 in WSW 8.9 mph 17 mph 93% 0.05 in 0.00 W/m2
05:09 54.5 °F 52.5 °F 29.6 in SW 4.9 mph 14 mph 93% 0.04 in 0.00 W/m2
05:14 54.5 °F 52.2 °F 29.6 in SW 4 mph 14 mph 92% 0.04 in 0.00 W/m2
05:19 54.3 °F 52 °F 29.6 in SSW 4.9 mph 14 mph 92% 0.04 in 0.00 W/m2
05:24 54.3 °F 52 °F 29.6 in SSW 19 mph 19 mph 92% 0.04 in 0.00 W/m2
05:29 54.5 °F 52.2 °F 29.6 in South 8.1 mph 20 mph 92% 0.06 in 0.00 W/m2
05:34 54.3 °F 52 °F 29.6 in WSW 6 mph 12 mph 92% 0.05 in 0.00 W/m2
05:39 54.3 °F 52.3 °F 29.6 in SW 8.1 mph 15 mph 93% 0.06 in 0.00 W/m2
05:44 54.3 °F 52.3 °F 29.6 in SW 4.9 mph 18 mph 93% 0.07 in 0.00 W/m2
05:49 54.1 °F 52.2 °F 29.6 in WSW 8.9 mph 17 mph 93% 0.08 in 0.00 W/m2
05:54 54.1 °F 52.2 °F 29.6 in South 6 mph 13 mph 93% 0.08 in 0.00 W/m2
05:59 54.1 °F 52.2 °F 29.6 in SW 13 mph 21 mph 93% 0.09 in 0.00 W/m2
06:04 54.1 °F 52.2 °F 29.6 in SW 19.9 mph 20 mph 93% 0.11 in 0.00 W/m2
06:09 54.1 °F 52.2 °F 29.6 in SW 21 mph 21 mph 93% 0.12 in 0.00 W/m2
06:14 54.1 °F 52.2 °F 29.6 in SW 8.1 mph 12 mph 93% 0.12 in 0.00 W/m2
06:19 54.1 °F 52.2 °F 29.6 in SSW 12.1 mph 15 mph 93% 0.13 in 0.00 W/m2
06:24 54.1 °F 52.2 °F 29.6 in SW 11 mph 14 mph 93% 0.12 in 0.00 W/m2
06:29 54.1 °F 52.2 °F 29.6 in SSW 6.9 mph 11 mph 93% 0.12 in 0.00 W/m2
06:34 54.1 °F 52.2 °F 29.6 in South 6.9 mph 14 mph 93% 0.11 in 0.00 W/m2
06:39 54.3 °F 52.3 °F 29.6 in SW 12.1 mph 21 mph 93% 0.11 in 0.00 W/m2
06:44 54.3 °F 52.3 °F 29.5 in SSW 4 mph 25 mph 93% 0.1 in 0.00 W/m2
06:49 54.1 °F 52.2 °F 29.5 in SSW 2.9 mph 12 mph 93% 0.1 in 0.00 W/m2
06:54 54.1 °F 52.2 °F 29.5 in SW 4.9 mph 11 mph 93% 0.09 in 0.00 W/m2
06:59 54.1 °F 52.2 °F 29.5 in SSW 11 mph 11 mph 93% 0.07 in 0.00 W/m2
07:04 54.1 °F 52.2 °F 29.5 in SSW 11 mph 14 mph 93% 0.06 in 0.00 W/m2
07:09 54.1 °F 52.2 °F 29.5 in SW 10.1 mph 22 mph 93% 0.06 in 0.00 W/m2
07:14 54.1 °F 52.2 °F 29.5 in SW 6 mph 12 mph 93% 0.06 in 0.00 W/m2
07:19 54 °F 52 °F 29.5 in SSW 6 mph 9 mph 93% 0.06 in 0.00 W/m2
07:24 54 °F 52 °F 29.5 in WSW 6 mph 16 mph 93% 0.07 in 0.00 W/m2
07:29 54 °F 52 °F 29.5 in WSW 8.1 mph 14 mph 93% 0.07 in 0.00 W/m2
07:34 53.4 °F 51.4 °F 29.5 in West 26 mph 26 mph 93% 0.09 in 0.00 W/m2
07:39 51.6 °F 49.6 °F 29.5 in West 14.1 mph 23 mph 93% 0.09 in 0.00 W/m2
07:44 50.9 °F 48.9 °F 29.5 in West 13 mph 20 mph 93% 0.09 in 0.00 W/m2
07:49 50.4 °F 48.4 °F 29.5 in West 13 mph 27 mph 93% 0.09 in 0.00 W/m2
07:54 49.8 °F 47.8 °F 29.5 in West 11 mph 21 mph 93% 0.09 in 0.00 W/m2
07:59 49.6 °F 47.7 °F 29.5 in WNW 10.1 mph 15 mph 93% 0.11 in 0.00 W/m2
08:04 49.3 °F 47.3 °F 29.6 in WNW 10.1 mph 18 mph 93% 0.11 in 0.00 W/m2
08:09 48.9 °F 46.9 °F 29.6 in WNW 12.1 mph 25 mph 93% 0.11 in 0.00 W/m2
08:14 48.7 °F 46.8 °F 29.6 in NW 8.9 mph 16 mph 93% 0.1 in 0.00 W/m2
08:19 48.6 °F 46.6 °F 29.6 in WNW 6.9 mph 11 mph 93% 0.1 in 0.00 W/m2
08:24 48.6 °F 46.6 °F 29.6 in West 6.9 mph 13 mph 93% 0.09 in 0.00 W/m2
08:29 48.6 °F 46.6 °F 29.6 in NW 10.1 mph 18 mph 93% 0.09 in 0.00 W/m2
08:34 48.6 °F 46.6 °F 29.6 in WNW 10.1 mph 13 mph 93% 0.06 in 0.00 W/m2
08:39 48.6 °F 46.9 °F 29.6 in WNW 6.9 mph 13 mph 94% 0.07 in 0.00 W/m2
08:44 48.6 °F 46.9 °F 29.6 in WNW 4 mph 10 mph 94% 0.07 in 0.00 W/m2
08:49 48.7 °F 47.1 °F 29.5 in West 6 mph 13 mph 94% 0.06 in 5.00 W/m2
08:54 48.7 °F 47.1 °F 29.5 in WNW 4 mph 12 mph 94% 0.07 in 11.00 W/m2
08:59 48.7 °F 47.1 °F 29.5 in WNW 6 mph 9 mph 94% 0.06 in 16.00 W/m2
09:04 48.7 °F 47.1 °F 29.5 in West 4.9 mph 7 mph 94% 0.06 in 11.00 W/m2
09:09 48.7 °F 47.1 °F 29.5 in WNW 11 mph 11 mph 94% 0.05 in 18.00 W/m2
09:14 48.7 °F 47.1 °F 29.5 in West 2.9 mph 6 mph 94% 0.04 in 16.00 W/m2
09:19 48.9 °F 47.3 °F 29.5 in WNW 6 mph 8 mph 94% 0.04 in 33.00 W/m2
09:24 48.9 °F 47.3 °F 29.5 in West 8.1 mph 17 mph 94% 0.04 in 42.00 W/m2
09:29 49.1 °F 47.5 °F 29.5 in WNW 10.1 mph 13 mph 94% 0.03 in 47.00 W/m2
09:34 49.1 °F 47.5 °F 29.5 in SW 8.9 mph 11 mph 94% 0.02 in 53.00 W/m2
09:39 49.3 °F 47.7 °F 29.5 in WNW 10.1 mph 10 mph 94% 0.02 in 58.00 W/m2
09:40 49.1 °F 47.5 °F 29.5 in WNW 6.9 mph 13 mph 94% 0.02 in 58.00 W/m2
09:54 49.1 °F 46.9 °F 29.5 in West 8.1 mph 23 mph 92% 0 in 46.00 W/m2
09:59 49.1 °F 46.6 °F 29.5 in West 14.1 mph 16 mph 91% 0 in 40.00 W/m2
10:04 49.1 °F 46.2 °F 29.5 in WNW 6 mph 21 mph 90% 0 in 125.00 W/m2
10:09 49.5 °F 46.4 °F 29.6 in WNW 8.1 mph 15 mph 89% 0 in 95.00 W/m2
10:14 49.5 °F 46.4 °F 29.6 in WNW 10.1 mph 13 mph 89% 0 in 88.00 W/m2
10:19 49.5 °F 46 °F 29.6 in NW 8.9 mph 17 mph 88% 0 in 114.00 W/m2
10:24 49.6 °F 45.9 °F 29.5 in WNW 10.1 mph 18 mph 87% 0 in 139.00 W/m2
10:29 49.8 °F 46 °F 29.5 in NW 6.9 mph 16 mph 87% 0 in 76.00 W/m2
10:34 49.6 °F 45.7 °F 29.6 in NW 8.1 mph 15 mph 86% 0 in 46.00 W/m2
10:39 49.1 °F 44.4 °F 29.6 in WNW 12.1 mph 22 mph 84% 0 in 53.00 W/m2
10:44 48.9 °F 44.1 °F 29.6 in WNW 12.1 mph 20 mph 83% 0 in 74.00 W/m2
10:49 48.6 °F 43.3 °F 29.6 in WNW 14.1 mph 17 mph 82% 0 in 37.00 W/m2
10:54 48.6 °F 43.3 °F 29.6 in NNW 12.1 mph 17 mph 82% 0 in 33.00 W/m2
10:59 48.4 °F 43.2 °F 29.6 in West 10.1 mph 15 mph 82% 0 in 49.00 W/m2
11:01 48.2 °F 43 °F 29.6 in NW 18 mph 18 mph 82% 0 in 62.00 W/m2
11:09 48.7 °F 43.2 °F 29.6 in WNW 13 mph 17 mph 81% 0 in 162.00 W/m2
11:14 48.7 °F 43.5 °F 29.6 in NW 13 mph 19 mph 82% 0 in 56.00 W/m2
11:19 48.6 °F 43 °F 29.6 in WNW 21 mph 21 mph 81% 0 in 185.00 W/m2
11:24 48.7 °F 43.2 °F 29.6 in WNW 8.1 mph 18 mph 81% 0 in 93.00 W/m2
11:29 48.7 °F 43.2 °F 29.6 in NNW 6.9 mph 15 mph 81% 0 in 185.00 W/m2
11:34 48.9 °F 43 °F 29.6 in WNW 15 mph 19 mph 80% 0 in 190.00 W/m2
11:39 48.9 °F 43 °F 29.6 in WNW 23 mph 23 mph 80% 0 in 185.00 W/m2
11:44 48.9 °F 43 °F 29.6 in WNW 10.1 mph 21 mph 80% 0 in 188.00 W/m2
11:49 48.9 °F 43 °F 29.6 in WNW 8.1 mph 14 mph 80% 0 in 192.00 W/m2
11:54 48.9 °F 42.6 °F 29.6 in WNW 6.9 mph 14 mph 79% 0 in 113.00 W/m2
11:59 48.6 °F 42.3 °F 29.6 in West 24 mph 24 mph 79% 0 in 53.00 W/m2
12:04 48.6 °F 42.3 °F 29.6 in West 15 mph 17 mph 79% 0 in 192.00 W/m2
12:09 48.7 °F 42.4 °F 29.6 in West 8.1 mph 19 mph 79% 0 in 192.00 W/m2
12:14 48.9 °F 42.6 °F 29.6 in West 12.1 mph 18 mph 79% 0 in 195.00 W/m2
12:19 48.9 °F 42.4 °F 29.6 in NNW 8.9 mph 14 mph 78% 0 in 188.00 W/m2
12:24 48.9 °F 42.4 °F 29.6 in NW 11 mph 25 mph 78% 0 in 32.00 W/m2
12:29 48.6 °F 42.3 °F 29.6 in WNW 13 mph 13 mph 79% 0 in 162.00 W/m2
12:34 48.6 °F 42.3 °F 29.6 in NW 8.9 mph 16 mph 79% 0 in 91.00 W/m2
12:39 48.4 °F 42.3 °F 29.6 in West 12.1 mph 17 mph 79% 0 in 51.00 W/m2
12:44 48.2 °F 42.1 °F 29.6 in WNW 14.1 mph 17 mph 79% 0 in 53.00 W/m2
12:49 48 °F 42.4 °F 29.6 in WNW 6.9 mph 13 mph 81% 0 in 113.00 W/m2
12:54 48.4 °F 42.8 °F 29.6 in West 22 mph 22 mph 81% 0 in 338.00 W/m2
12:59 48.7 °F 42.8 °F 29.6 in WNW 14.1 mph 19 mph 80% 0 in 213.00 W/m2
13:04 48.9 °F 43 °F 29.6 in WNW 8.9 mph 20 mph 80% 0 in 220.00 W/m2
13:09 49.3 °F 42.8 °F 29.6 in NW 10.1 mph 23 mph 78% 0 in 230.00 W/m2
13:14 49.1 °F 42.3 °F 29.6 in NW 19 mph 19 mph 77% 0 in 76.00 W/m2
13:19 48.7 °F 40.8 °F 29.6 in WNW 12.1 mph 19 mph 74% 0 in 39.00 W/m2
13:24 48.4 °F 40.1 °F 29.6 in WNW 11 mph 26 mph 73% 0 in 49.00 W/m2
13:29 48 °F 40.1 °F 29.6 in West 15 mph 20 mph 74% 0 in 79.00 W/m2
13:34 47.8 °F 40.6 °F 29.6 in NNW 16.1 mph 21 mph 76% 0 in 49.00 W/m2
13:39 47.3 °F 40.1 °F 29.6 in NW 10.1 mph 18 mph 76% 0 in 90.00 W/m2
13:44 47.3 °F 40.1 °F 29.6 in NW 6 mph 22 mph 76% 0 in 155.00 W/m2
13:49 47.7 °F 40.5 °F 29.6 in West 8.9 mph 16 mph 76% 0 in 223.00 W/m2
13:54 47.8 °F 41 °F 29.6 in West 10.1 mph 23 mph 77% 0 in 144.00 W/m2
13:59 47.8 °F 41 °F 29.6 in West 8.1 mph 19 mph 77% 0 in 128.00 W/m2
14:04 47.8 °F 41 °F 29.6 in West 19 mph 19 mph 77% 0 in 63.00 W/m2
14:09 47.8 °F 41 °F 29.6 in WNW 12.1 mph 20 mph 77% 0 in 132.00 W/m2
14:14 48 °F 40.8 °F 29.6 in West 15 mph 20 mph 76% 0 in 97.00 W/m2
14:19 48.2 °F 41 °F 29.6 in WNW 12.1 mph 20 mph 76% 0 in 105.00 W/m2
14:24 48.2 °F 41 °F 29.6 in West 13 mph 22 mph 76% 0 in 77.00 W/m2
14:29 47.8 °F 40.3 °F 29.6 in WNW 13 mph 26 mph 75% 0 in 44.00 W/m2
14:34 47.7 °F 40.5 °F 29.6 in WNW 16.1 mph 20 mph 76% 0 in 32.00 W/m2
14:39 47.3 °F 40.5 °F 29.6 in NNW 4 mph 24 mph 77% 0 in 77.00 W/m2
14:44 47.3 °F 40.5 °F 29.6 in West 11 mph 14 mph 77% 0 in 40.00 W/m2
14:49 47.1 °F 39.9 °F 29.6 in WSW 15 mph 15 mph 76% 0 in 19.00 W/m2
14:54 47.1 °F 39.6 °F 29.6 in NNW 28 mph 28 mph 75% 0 in 21.00 W/m2
14:59 46.9 °F 39 °F 29.6 in West 16.1 mph 23 mph 74% 0 in 16.00 W/m2
15:04 46.9 °F 38.3 °F 29.6 in WNW 19 mph 21 mph 72% 0 in 16.00 W/m2
15:09 46.8 °F 38.5 °F 29.6 in NW 11 mph 15 mph 73% 0 in 16.00 W/m2
15:14 46.8 °F 38.5 °F 29.6 in NW 8.9 mph 22 mph 73% 0 in 14.00 W/m2
15:19 46.6 °F 38.7 °F 29.6 in West 10.1 mph 17 mph 74% 0 in 12.00 W/m2
15:24 46.4 °F 38.8 °F 29.6 in WNW 15 mph 22 mph 75% 0 in 5.00 W/m2
15:29 46.4 °F 38.8 °F 29.6 in WSW 8.9 mph 20 mph 75% 0 in 16.00 W/m2
15:34 45.9 °F 38.7 °F 29.6 in WNW 12.1 mph 18 mph 76% 0 in 39.00 W/m2
15:39 45 °F 38.8 °F 29.6 in West 4.9 mph 14 mph 79% 0 in 9.00 W/m2
15:44 44.4 °F 39 °F 29.6 in West 2.9 mph 12 mph 81% 0 in 5.00 W/m2
15:49 44.2 °F 38.8 °F 29.6 in West 2 mph 7 mph 81% 0 in 5.00 W/m2
15:54 44.4 °F 39.2 °F 29.6 in West 4.9 mph 13 mph 82% 0 in 0.00 W/m2
15:59 44.4 °F 39.6 °F 29.6 in WSW 8.9 mph 11 mph 83% 0 in 0.00 W/m2
16:04 44.4 °F 39.9 °F 29.6 in West 10.1 mph 10 mph 84% 0 in 0.00 W/m2
16:09 44.2 °F 39.7 °F 29.6 in West 4.9 mph 6 mph 84% 0 in 0.00 W/m2
16:14 44.2 °F 39.7 °F 29.6 in West 6.9 mph 10 mph 84% 0 in 0.00 W/m2
16:19 44.2 °F 40.1 °F 29.6 in West 4 mph 9 mph 85% 0 in 0.00 W/m2
16:24 44.4 °F 39.9 °F 29.6 in WNW 10 mph 10 mph 84% 0 in 0.00 W/m2
16:29 44.6 °F 40.1 °F 29.6 in WNW 12 mph 12 mph 84% 0 in 0.00 W/m2
16:34 44.4 °F 40.3 °F 29.6 in West 6.9 mph 14 mph 85% 0 in 0.00 W/m2
16:39 44.1 °F 39.9 °F 29.6 in West 16 mph 16 mph 85% 0 in 0.00 W/m2
16:44 43.9 °F 39.7 °F 29.6 in WNW 8.1 mph 10 mph 85% 0 in 0.00 W/m2
16:49 43.9 °F 39.7 °F 29.6 in WSW 2.9 mph 15 mph 85% 0 in 0.00 W/m2
16:54 44.1 °F 39.9 °F 29.7 in West 8.1 mph 11 mph 85% 0 in 0.00 W/m2
16:59 44.1 °F 39.6 °F 29.7 in WSW 6.9 mph 13 mph 84% 0 in 0.00 W/m2
17:04 44.2 °F 39.4 °F 29.6 in WNW 8.9 mph 10 mph 83% 0 in 0.00 W/m2
17:09 44.4 °F 39.9 °F 29.6 in West 6 mph 13 mph 84% 0 in 0.00 W/m2
17:14 44.4 °F 39.9 °F 29.7 in WNW 12.1 mph 16 mph 84% 0 in 0.00 W/m2
17:19 43.9 °F 39.7 °F 29.7 in WNW 6.9 mph 14 mph 85% 0 in 0.00 W/m2
17:24 43.7 °F 39.7 °F 29.7 in West 4.9 mph 7 mph 86% 0 in 0.00 W/m2
17:29 43.5 °F 39.6 °F 29.7 in WNW 10.1 mph 10 mph 86% 0 in 0.00 W/m2
17:34 43.5 °F 39.6 °F 29.7 in West 6 mph 9 mph 86% 0 in 0.00 W/m2
17:39 43.7 °F 39.7 °F 29.7 in West 4 mph 8 mph 86% 0 in 0.00 W/m2
17:44 43.9 °F 39.9 °F 29.7 in West 2.9 mph 10 mph 86% 0 in 0.00 W/m2
17:49 44.1 °F 40.1 °F 29.7 in West 6 mph 6 mph 86% 0 in 0.00 W/m2
17:54 44.1 °F 40.1 °F 29.7 in West 6.9 mph 9 mph 86% 0 in 0.00 W/m2
17:59 44.2 °F 40.6 °F 29.7 in West 2 mph 7 mph 87% 0 in 0.00 W/m2
18:04 44.2 °F 40.6 °F 29.7 in West 9 mph 9 mph 87% 0 in 0.00 W/m2
18:09 44.4 °F 40.8 °F 29.7 in WSW 4.9 mph 8 mph 87% 0 in 0.00 W/m2
18:14 44.6 °F 41 °F 29.7 in WNW 4.9 mph 15 mph 87% 0 in 0.00 W/m2
18:19 44.8 °F 41.2 °F 29.7 in West 6 mph 11 mph 87% 0 in 0.00 W/m2
18:24 45 °F 41 °F 29.7 in West 8.9 mph 12 mph 86% 0 in 0.00 W/m2
18:29 45 °F 41 °F 29.7 in WNW 4 mph 13 mph 86% 0 in 0.00 W/m2
18:34 45.1 °F 41.2 °F 29.7 in WNW 6.9 mph 12 mph 86% 0 in 0.00 W/m2
18:39 45.3 °F 41 °F 29.7 in WNW 10.1 mph 14 mph 85% 0 in 0.00 W/m2
18:44 45.5 °F 41.2 °F 29.7 in West 4.9 mph 10 mph 85% 0 in 0.00 W/m2
18:49 45.5 °F 41 °F 29.7 in WNW 4.9 mph 9 mph 84% 0 in 0.00 W/m2
18:54 45.7 °F 41.2 °F 29.7 in NW 8.9 mph 17 mph 84% 0 in 0.00 W/m2
18:59 45.5 °F 40.6 °F 29.7 in WNW 8.9 mph 12 mph 83% 0.01 in 0.00 W/m2
19:04 45.3 °F 40.8 °F 29.7 in WSW 4.9 mph 19 mph 84% 0.01 in 0.00 W/m2
19:09 45.1 °F 40.6 °F 29.7 in NW 2.9 mph 12 mph 84% 0.01 in 0.00 W/m2
19:14 45.1 °F 40.6 °F 29.7 in WNW 2.9 mph 13 mph 84% 0.01 in 0.00 W/m2
19:19 45 °F 40.5 °F 29.7 in West 4.9 mph 11 mph 84% 0.01 in 0.00 W/m2
19:24 45 °F 40.5 °F 29.7 in WSW 4 mph 9 mph 84% 0.01 in 0.00 W/m2
19:29 45.1 °F 40.6 °F 29.7 in West 10.1 mph 14 mph 84% 0.01 in 0.00 W/m2
19:34 45.1 °F 40.8 °F 29.7 in West 8.9 mph 13 mph 85% 0.01 in 0.00 W/m2
19:39 45.3 °F 41 °F 29.7 in WNW 12.1 mph 20 mph 85% 0.01 in 0.00 W/m2
19:44 45.1 °F 40.8 °F 29.7 in West 30 mph 30 mph 85% 0.02 in 0.00 W/m2
19:49 43.9 °F 40.3 °F 29.7 in West 13 mph 26 mph 87% 0.06 in 0.00 W/m2
19:54 43.3 °F 40.1 °F 29.7 in West 4 mph 14 mph 88% 0.06 in 0.00 W/m2
19:59 43.5 °F 40.5 °F 29.7 in West 8.1 mph 14 mph 89% 0.05 in 0.00 W/m2
20:04 44.1 °F 41.4 °F 29.7 in West 8.9 mph 14 mph 90% 0.05 in 0.00 W/m2
20:09 44.1 °F 41.4 °F 29.7 in West 4.9 mph 8 mph 90% 0.05 in 0.00 W/m2
20:14 44.2 °F 41.5 °F 29.7 in West 4.9 mph 9 mph 90% 0.05 in 0.00 W/m2
20:19 44.1 °F 41.4 °F 29.7 in West 8.1 mph 10 mph 90% 0.05 in 0.00 W/m2
20:24 44.1 °F 41.4 °F 29.7 in WSW 6 mph 9 mph 90% 0.05 in 0.00 W/m2
20:29 44.1 °F 41.4 °F 29.7 in WSW 8.1 mph 13 mph 90% 0.06 in 0.00 W/m2
20:34 44.1 °F 41.4 °F 29.7 in WSW 6.9 mph 12 mph 90% 0.06 in 0.00 W/m2
20:39 44.4 °F 41.7 °F 29.7 in WNW 11 mph 14 mph 90% 0.06 in 0.00 W/m2
20:44 44.4 °F 41.7 °F 29.7 in WSW 15 mph 15 mph 90% 0.04 in 0.00 W/m2
20:49 44.8 °F 42.1 °F 29.7 in WSW 4.9 mph 10 mph 90% 0.01 in 0.00 W/m2
20:54 45 °F 42.3 °F 29.7 in West 4 mph 13 mph 90% 0.01 in 0.00 W/m2
20:59 45 °F 42.3 °F 29.7 in SW 4 mph 9 mph 90% 0.01 in 0.00 W/m2
21:04 45 °F 42.3 °F 29.7 in WSW 6.9 mph 13 mph 90% 0.01 in 0.00 W/m2
21:09 45 °F 41.9 °F 29.7 in West 2.9 mph 12 mph 89% 0.01 in 0.00 W/m2
21:14 45 °F 41.9 °F 29.7 in West 8.1 mph 11 mph 89% 0.01 in 0.00 W/m2
21:19 45.1 °F 41.7 °F 29.7 in NNW 17 mph 17 mph 88% 0.01 in 0.00 W/m2
21:24 45.1 °F 41.7 °F 29.7 in West 8.9 mph 12 mph 88% 0.01 in 0.00 W/m2
21:29 45.3 °F 41.7 °F 29.7 in WSW 20 mph 20 mph 87% 0 in 0.00 W/m2
21:34 45.1 °F 41.5 °F 29.7 in WSW 16.1 mph 16 mph 87% 0 in 0.00 W/m2
21:39 45 °F 41.5 °F 29.7 in WNW 6 mph 13 mph 88% 0.02 in 0.00 W/m2
21:44 44.6 °F 41.5 °F 29.7 in WSW 8.1 mph 23 mph 89% 0.05 in 0.00 W/m2
21:49 44.4 °F 41.7 °F 29.7 in West 12.1 mph 24 mph 90% 0.06 in 0.00 W/m2
21:54 44.4 °F 41.7 °F 29.7 in NW 6 mph 18 mph 90% 0.06 in 0.00 W/m2
21:59 44.2 °F 41.5 °F 29.7 in WSW 11 mph 14 mph 90% 0.06 in 0.00 W/m2
22:04 44.2 °F 41.5 °F 29.7 in West 6 mph 16 mph 90% 0.06 in 0.00 W/m2
22:09 44.2 °F 41.5 °F 29.7 in WSW 2.9 mph 15 mph 90% 0.06 in 0.00 W/m2
22:14 44.4 °F 41.7 °F 29.7 in SW 6.9 mph 10 mph 90% 0.06 in 0.00 W/m2
22:19 44.8 °F 42.1 °F 29.7 in WNW 13 mph 19 mph 90% 0.06 in 0.00 W/m2
22:24 45.5 °F 42.8 °F 29.7 in West 23.9 mph 24 mph 90% 0.06 in 0.00 W/m2
22:29 45.5 °F 42.1 °F 29.7 in West 15 mph 22 mph 88% 0.07 in 0.00 W/m2
22:34 45.5 °F 42.1 °F 29.7 in WSW 10.1 mph 21 mph 88% 0.06 in 0.00 W/m2
22:39 45.5 °F 42.1 °F 29.7 in West 4.9 mph 13 mph 88% 0.04 in 0.00 W/m2
22:44 45.5 °F 42.1 °F 29.7 in WNW 6 mph 9 mph 88% 0.01 in 0.00 W/m2
22:49 45.5 °F 42.1 °F 29.7 in West 0.9 mph 16 mph 88% 0.01 in 0.00 W/m2
22:54 45.5 °F 42.4 °F 29.7 in WNW 4.9 mph 18 mph 89% 0.04 in 0.00 W/m2
22:59 45.5 °F 42.8 °F 29.7 in WSW 2.9 mph 12 mph 90% 0.04 in 0.00 W/m2
23:04 45.3 °F 42.6 °F 29.7 in WNW 6 mph 14 mph 90% 0.04 in 0.00 W/m2
23:09 45.3 °F 42.8 °F 29.7 in West 8.1 mph 15 mph 91% 0.04 in 0.00 W/m2
23:14 45.5 °F 43 °F 29.7 in West 2.9 mph 16 mph 91% 0.04 in 0.00 W/m2
23:19 45.5 °F 42.8 °F 29.7 in WSW 8.9 mph 13 mph 90% 0.04 in 0.00 W/m2
23:24 45.5 °F 42.8 °F 29.7 in NW 4 mph 10 mph 90% 0.04 in 0.00 W/m2
23:29 45.9 °F 43.2 °F 29.7 in West 10.1 mph 16 mph 90% 0.04 in 0.00 W/m2
23:34 46 °F 43.3 °F 29.7 in SW 6.9 mph 19 mph 90% 0.04 in 0.00 W/m2
23:39 46 °F 43 °F 29.7 in West 8.9 mph 14 mph 89% 0.04 in 0.00 W/m2
23:44 46 °F 43 °F 29.7 in West 4 mph 11 mph 89% 0.04 in 0.00 W/m2
23:49 46 °F 43 °F 29.7 in West 8.1 mph 14 mph 89% 0.04 in 0.00 W/m2
23:54 46.2 °F 43.2 °F 29.7 in WSW 4.9 mph 9 mph 89% 0.01 in 0.00 W/m2
23:59 46.2 °F 43.2 °F 29.7 in SW 6.9 mph 7 mph 89% 0 in 0.00 W/m2